sensor_id;sensor_type;location;lat;lon;timestamp;temperature;humidity
15455;DHT22;21057;51.024;7.540;2022-11-25T00:01:17;6.60;99.90
15455;DHT22;21057;51.024;7.540;2022-11-25T00:03:45;6.60;99.90
15455;DHT22;21057;51.024;7.540;2022-11-25T00:06:15;6.60;99.90
15455;DHT22;21057;51.024;7.540;2022-11-25T00:08:44;6.70;99.90
15455;DHT22;21057;51.024;7.540;2022-11-25T00:11:12;6.70;99.90
15455;DHT22;21057;51.024;7.540;2022-11-25T00:13:40;6.80;99.90
15455;DHT22;21057;51.024;7.540;2022-11-25T00:16:10;6.70;99.90
15455;DHT22;21057;51.024;7.540;2022-11-25T00:18:38;6.70;99.90
15455;DHT22;21057;51.024;7.540;2022-11-25T00:21:06;6.90;99.90
15455;DHT22;21057;51.024;7.540;2022-11-25T00:23:33;6.90;99.90
15455;DHT22;21057;51.024;7.540;2022-11-25T00:26:06;6.90;99.90
15455;DHT22;21057;51.024;7.540;2022-11-25T00:28:33;6.90;99.90
15455;DHT22;21057;51.024;7.540;2022-11-25T00:31:04;7.00;99.90
15455;DHT22;21057;51.024;7.540;2022-11-25T00:33:32;7.00;99.90
15455;DHT22;21057;51.024;7.540;2022-11-25T00:36:00;6.90;99.90
15455;DHT22;21057;51.024;7.540;2022-11-25T00:38:28;6.90;99.90
15455;DHT22;21057;51.024;7.540;2022-11-25T00:40:54;6.90;99.90
15455;DHT22;21057;51.024;7.540;2022-11-25T00:43:42;6.90;99.90
15455;DHT22;21057;51.024;7.540;2022-11-25T00:46:26;7.10;99.90
15455;DHT22;21057;51.024;7.540;2022-11-25T00:48:54;7.10;99.90
15455;DHT22;21057;51.024;7.540;2022-11-25T00:51:21;7.10;99.90
15455;DHT22;21057;51.024;7.540;2022-11-25T00:53:48;7.10;99.90
15455;DHT22;21057;51.024;7.540;2022-11-25T00:56:15;7.10;99.90
15455;DHT22;21057;51.024;7.540;2022-11-25T00:58:42;7.20;99.90
15455;DHT22;21057;51.024;7.540;2022-11-25T01:01:10;7.10;99.90
15455;DHT22;21057;51.024;7.540;2022-11-25T01:03:37;7.00;99.90
15455;DHT22;21057;51.024;7.540;2022-11-25T01:06:09;7.00;99.90
15455;DHT22;21057;51.024;7.540;2022-11-25T01:08:37;7.00;99.90
15455;DHT22;21057;51.024;7.540;2022-11-25T01:11:07;7.00;99.90
15455;DHT22;21057;51.024;7.540;2022-11-25T01:13:35;7.10;99.90
15455;DHT22;21057;51.024;7.540;2022-11-25T01:16:03;7.00;99.90
15455;DHT22;21057;51.024;7.540;2022-11-25T01:18:31;6.90;99.90
15455;DHT22;21057;51.024;7.540;2022-11-25T01:21:06;6.80;99.90
15455;DHT22;21057;51.024;7.540;2022-11-25T01:23:33;6.90;99.90
15455;DHT22;21057;51.024;7.540;2022-11-25T01:26:01;7.00;99.90
15455;DHT22;21057;51.024;7.540;2022-11-25T01:28:28;7.10;99.90
15455;DHT22;21057;51.024;7.540;2022-11-25T01:30:59;7.00;99.90
15455;DHT22;21057;51.024;7.540;2022-11-25T01:33:26;6.90;99.90
15455;DHT22;21057;51.024;7.540;2022-11-25T01:35:53;6.90;99.90
15455;DHT22;21057;51.024;7.540;2022-11-25T01:38:21;7.00;99.90
15455;DHT22;21057;51.024;7.540;2022-11-25T01:40:48;7.00;99.90
15455;DHT22;21057;51.024;7.540;2022-11-25T01:43:15;6.90;99.90
15455;DHT22;21057;51.024;7.540;2022-11-25T01:45:42;6.90;99.90
15455;DHT22;21057;51.024;7.540;2022-11-25T01:48:13;7.10;99.90
15455;DHT22;21057;51.024;7.540;2022-11-25T01:50:41;7.00;99.90
15455;DHT22;21057;51.024;7.540;2022-11-25T01:53:10;7.00;99.90
15455;DHT22;21057;51.024;7.540;2022-11-25T01:55:41;6.90;99.90
15455;DHT22;21057;51.024;7.540;2022-11-25T01:58:10;7.00;99.90
15455;DHT22;21057;51.024;7.540;2022-11-25T02:00:38;7.00;99.90
15455;DHT22;21057;51.024;7.540;2022-11-25T02:03:06;6.90;99.90
15455;DHT22;21057;51.024;7.540;2022-11-25T02:05:38;7.00;99.90
15455;DHT22;21057;51.024;7.540;2022-11-25T02:08:06;7.10;99.90
15455;DHT22;21057;51.024;7.540;2022-11-25T02:10:34;7.20;99.90
15455;DHT22;21057;51.024;7.540;2022-11-25T02:13:02;7.20;99.90
15455;DHT22;21057;51.024;7.540;2022-11-25T02:15:31;7.20;99.90
15455;DHT22;21057;51.024;7.540;2022-11-25T02:18:00;7.00;99.90
15455;DHT22;21057;51.024;7.540;2022-11-25T02:20:27;7.00;99.90
15455;DHT22;21057;51.024;7.540;2022-11-25T02:22:59;6.90;99.90
15455;DHT22;21057;51.024;7.540;2022-11-25T02:25:31;7.00;99.90
15455;DHT22;21057;51.024;7.540;2022-11-25T02:28:02;6.90;99.90
15455;DHT22;21057;51.024;7.540;2022-11-25T02:30:29;6.90;99.90
15455;DHT22;21057;51.024;7.540;2022-11-25T02:32:57;6.90;99.90
15455;DHT22;21057;51.024;7.540;2022-11-25T02:35:28;6.90;99.90
15455;DHT22;21057;51.024;7.540;2022-11-25T02:37:59;6.90;99.90
15455;DHT22;21057;51.024;7.540;2022-11-25T02:40:30;7.00;99.90
15455;DHT22;21057;51.024;7.540;2022-11-25T02:42:58;7.10;99.90
15455;DHT22;21057;51.024;7.540;2022-11-25T02:45:31;7.10;99.90
15455;DHT22;21057;51.024;7.540;2022-11-25T02:47:59;7.00;99.90
15455;DHT22;21057;51.024;7.540;2022-11-25T02:50:26;7.10;99.90
15455;DHT22;21057;51.024;7.540;2022-11-25T02:52:53;7.20;99.90
15455;DHT22;21057;51.024;7.540;2022-11-25T02:55:19;7.20;99.90
15455;DHT22;21057;51.024;7.540;2022-11-25T02:57:47;7.20;99.90
15455;DHT22;21057;51.024;7.540;2022-11-25T03:00:16;7.30;99.90
15455;DHT22;21057;51.024;7.540;2022-11-25T03:02:43;7.30;99.90
15455;DHT22;21057;51.024;7.540;2022-11-25T03:05:09;7.30;99.90
15455;DHT22;21057;51.024;7.540;2022-11-25T03:07:36;7.40;99.90
15455;DHT22;21057;51.024;7.540;2022-11-25T03:10:04;7.50;99.90
15455;DHT22;21057;51.024;7.540;2022-11-25T03:12:31;7.60;99.90
15455;DHT22;21057;51.024;7.540;2022-11-25T03:14:59;7.60;99.90
15455;DHT22;21057;51.024;7.540;2022-11-25T03:17:26;7.60;99.90
15455;DHT22;21057;51.024;7.540;2022-11-25T03:19:53;7.40;99.90
15455;DHT22;21057;51.024;7.540;2022-11-25T03:22:20;7.40;99.90
15455;DHT22;21057;51.024;7.540;2022-11-25T03:24:47;7.50;99.90
15455;DHT22;21057;51.024;7.540;2022-11-25T03:27:13;7.50;99.90
15455;DHT22;21057;51.024;7.540;2022-11-25T03:29:41;7.40;99.90
15455;DHT22;21057;51.024;7.540;2022-11-25T03:32:09;7.40;99.90
15455;DHT22;21057;51.024;7.540;2022-11-25T03:34:36;7.50;99.90
15455;DHT22;21057;51.024;7.540;2022-11-25T03:37:02;7.50;99.90
15455;DHT22;21057;51.024;7.540;2022-11-25T03:39:29;7.60;99.90
15455;DHT22;21057;51.024;7.540;2022-11-25T03:41:56;7.60;99.90
15455;DHT22;21057;51.024;7.540;2022-11-25T03:44:23;7.60;99.90
15455;DHT22;21057;51.024;7.540;2022-11-25T03:46:50;7.80;99.90
15455;DHT22;21057;51.024;7.540;2022-11-25T03:49:18;7.80;99.90
15455;DHT22;21057;51.024;7.540;2022-11-25T03:51:46;7.70;99.90
15455;DHT22;21057;51.024;7.540;2022-11-25T03:54:13;7.80;99.90
15455;DHT22;21057;51.024;7.540;2022-11-25T03:56:40;7.80;99.90
15455;DHT22;21057;51.024;7.540;2022-11-25T03:59:07;7.80;99.90
15455;DHT22;21057;51.024;7.540;2022-11-25T04:01:33;7.80;99.90
15455;DHT22;21057;51.024;7.540;2022-11-25T04:04:00;7.80;99.90
15455;DHT22;21057;51.024;7.540;2022-11-25T04:06:28;7.90;99.90
15455;DHT22;21057;51.024;7.540;2022-11-25T04:08:56;7.80;99.90
15455;DHT22;21057;51.024;7.540;2022-11-25T04:11:23;7.70;99.90
15455;DHT22;21057;51.024;7.540;2022-11-25T04:14:10;7.80;99.90
15455;DHT22;21057;51.024;7.540;2022-11-25T04:16:36;8.00;99.90
15455;DHT22;21057;51.024;7.540;2022-11-25T04:19:03;7.80;99.90
15455;DHT22;21057;51.024;7.540;2022-11-25T04:21:32;8.10;99.90
15455;DHT22;21057;51.024;7.540;2022-11-25T04:23:58;8.00;99.90
15455;DHT22;21057;51.024;7.540;2022-11-25T04:26:25;8.00;99.90
15455;DHT22;21057;51.024;7.540;2022-11-25T04:28:52;7.90;99.90
15455;DHT22;21057;51.024;7.540;2022-11-25T04:31:19;8.10;99.90
15455;DHT22;21057;51.024;7.540;2022-11-25T04:33:46;8.00;99.90
15455;DHT22;21057;51.024;7.540;2022-11-25T04:36:13;8.20;99.90
15455;DHT22;21057;51.024;7.540;2022-11-25T04:38:42;8.10;99.90
15455;DHT22;21057;51.024;7.540;2022-11-25T04:41:09;8.10;99.90
15455;DHT22;21057;51.024;7.540;2022-11-25T04:43:35;8.10;99.90
15455;DHT22;21057;51.024;7.540;2022-11-25T04:46:02;8.10;99.90
15455;DHT22;21057;51.024;7.540;2022-11-25T04:48:29;8.30;99.90
15455;DHT22;21057;51.024;7.540;2022-11-25T04:50:56;8.30;99.90
15455;DHT22;21057;51.024;7.540;2022-11-25T04:53:23;8.40;99.90
15455;DHT22;21057;51.024;7.540;2022-11-25T04:55:51;8.30;99.90
15455;DHT22;21057;51.024;7.540;2022-11-25T04:58:18;8.30;99.90
15455;DHT22;21057;51.024;7.540;2022-11-25T05:01:04;8.40;99.90
15455;DHT22;21057;51.024;7.540;2022-11-25T05:03:30;8.40;99.90
15455;DHT22;21057;51.024;7.540;2022-11-25T05:05:57;8.30;99.90
15455;DHT22;21057;51.024;7.540;2022-11-25T05:08:24;8.30;99.90
15455;DHT22;21057;51.024;7.540;2022-11-25T05:10:52;8.20;99.90
15455;DHT22;21057;51.024;7.540;2022-11-25T05:13:20;8.20;99.90
15455;DHT22;21057;51.024;7.540;2022-11-25T05:15:47;8.20;99.90
15455;DHT22;21057;51.024;7.540;2022-11-25T05:18:13;8.20;99.90
15455;DHT22;21057;51.024;7.540;2022-11-25T05:20:40;8.10;99.90
15455;DHT22;21057;51.024;7.540;2022-11-25T05:23:07;8.20;99.90
15455;DHT22;21057;51.024;7.540;2022-11-25T05:25:34;8.20;99.90
15455;DHT22;21057;51.024;7.540;2022-11-25T05:28:02;8.30;99.90
15455;DHT22;21057;51.024;7.540;2022-11-25T05:30:29;8.30;99.90
15455;DHT22;21057;51.024;7.540;2022-11-25T05:32:56;8.30;99.90
15455;DHT22;21057;51.024;7.540;2022-11-25T05:35:23;8.40;99.90
15455;DHT22;21057;51.024;7.540;2022-11-25T05:37:49;8.30;99.90
15455;DHT22;21057;51.024;7.540;2022-11-25T05:40:16;8.30;99.90
15455;DHT22;21057;51.024;7.540;2022-11-25T05:42:43;8.40;99.90
15455;DHT22;21057;51.024;7.540;2022-11-25T05:45:11;8.40;99.90
15455;DHT22;21057;51.024;7.540;2022-11-25T05:47:38;8.40;99.90
15455;DHT22;21057;51.024;7.540;2022-11-25T05:50:06;8.40;99.90
15455;DHT22;21057;51.024;7.540;2022-11-25T05:52:33;8.60;99.90
15455;DHT22;21057;51.024;7.540;2022-11-25T05:55:00;8.60;99.90
15455;DHT22;21057;51.024;7.540;2022-11-25T05:57:27;8.50;99.90
15455;DHT22;21057;51.024;7.540;2022-11-25T05:59:54;8.50;99.90
15455;DHT22;21057;51.024;7.540;2022-11-25T06:02:22;8.40;99.90
15455;DHT22;21057;51.024;7.540;2022-11-25T06:04:48;8.40;99.90
15455;DHT22;21057;51.024;7.540;2022-11-25T06:07:15;8.30;99.90
15455;DHT22;21057;51.024;7.540;2022-11-25T06:09:42;8.30;99.90
15455;DHT22;21057;51.024;7.540;2022-11-25T06:12:09;8.40;99.90
15455;DHT22;21057;51.024;7.540;2022-11-25T06:14:36;8.30;99.90
15455;DHT22;21057;51.024;7.540;2022-11-25T06:17:02;8.40;99.90
15455;DHT22;21057;51.024;7.540;2022-11-25T06:19:31;8.50;99.90
15455;DHT22;21057;51.024;7.540;2022-11-25T06:21:57;8.50;99.90
15455;DHT22;21057;51.024;7.540;2022-11-25T06:24:24;8.40;99.90
15455;DHT22;21057;51.024;7.540;2022-11-25T06:26:54;8.40;99.90
15455;DHT22;21057;51.024;7.540;2022-11-25T06:29:23;8.30;99.90
15455;DHT22;21057;51.024;7.540;2022-11-25T06:31:49;8.40;99.90
15455;DHT22;21057;51.024;7.540;2022-11-25T06:34:16;8.50;99.90
15455;DHT22;21057;51.024;7.540;2022-11-25T06:36:45;8.50;99.90
15455;DHT22;21057;51.024;7.540;2022-11-25T06:39:11;8.50;99.90
15455;DHT22;21057;51.024;7.540;2022-11-25T06:41:38;8.40;99.90
15455;DHT22;21057;51.024;7.540;2022-11-25T06:44:05;8.40;99.90
15455;DHT22;21057;51.024;7.540;2022-11-25T06:46:32;8.50;99.90
15455;DHT22;21057;51.024;7.540;2022-11-25T06:48:59;8.70;99.90
15455;DHT22;21057;51.024;7.540;2022-11-25T06:51:26;8.60;99.90
15455;DHT22;21057;51.024;7.540;2022-11-25T06:53:54;8.50;99.90
15455;DHT22;21057;51.024;7.540;2022-11-25T06:56:22;8.40;99.90
15455;DHT22;21057;51.024;7.540;2022-11-25T06:58:50;8.50;99.90
15455;DHT22;21057;51.024;7.540;2022-11-25T07:01:19;8.60;99.90
15455;DHT22;21057;51.024;7.540;2022-11-25T07:03:48;8.50;99.90
15455;DHT22;21057;51.024;7.540;2022-11-25T07:06:16;8.50;99.90
15455;DHT22;21057;51.024;7.540;2022-11-25T07:08:44;8.70;99.90
15455;DHT22;21057;51.024;7.540;2022-11-25T07:11:15;8.70;99.90
15455;DHT22;21057;51.024;7.540;2022-11-25T07:13:42;8.60;99.90
15455;DHT22;21057;51.024;7.540;2022-11-25T07:16:10;8.50;99.90
15455;DHT22;21057;51.024;7.540;2022-11-25T07:18:38;8.50;99.90
15455;DHT22;21057;51.024;7.540;2022-11-25T07:21:07;8.70;99.90
15455;DHT22;21057;51.024;7.540;2022-11-25T07:23:35;8.80;99.90
15455;DHT22;21057;51.024;7.540;2022-11-25T07:26:03;8.80;99.90
15455;DHT22;21057;51.024;7.540;2022-11-25T07:28:32;9.00;99.90
15455;DHT22;21057;51.024;7.540;2022-11-25T07:31:10;8.80;99.90
15455;DHT22;21057;51.024;7.540;2022-11-25T07:33:39;8.80;99.90
15455;DHT22;21057;51.024;7.540;2022-11-25T07:36:08;8.70;99.90
15455;DHT22;21057;51.024;7.540;2022-11-25T07:38:36;8.60;99.90
15455;DHT22;21057;51.024;7.540;2022-11-25T07:41:05;8.60;99.90
15455;DHT22;21057;51.024;7.540;2022-11-25T07:43:33;8.70;99.90
15455;DHT22;21057;51.024;7.540;2022-11-25T07:46:08;8.80;99.90
15455;DHT22;21057;51.024;7.540;2022-11-25T07:48:35;8.80;99.90
15455;DHT22;21057;51.024;7.540;2022-11-25T07:51:02;8.80;99.90
15455;DHT22;21057;51.024;7.540;2022-11-25T07:53:29;9.00;99.90
15455;DHT22;21057;51.024;7.540;2022-11-25T07:55:59;8.90;99.90
15455;DHT22;21057;51.024;7.540;2022-11-25T07:58:26;8.90;99.90
15455;DHT22;21057;51.024;7.540;2022-11-25T08:00:54;8.80;99.90
15455;DHT22;21057;51.024;7.540;2022-11-25T08:03:21;8.70;99.90
15455;DHT22;21057;51.024;7.540;2022-11-25T08:05:48;8.70;99.90
15455;DHT22;21057;51.024;7.540;2022-11-25T08:08:15;8.90;99.90
15455;DHT22;21057;51.024;7.540;2022-11-25T08:10:42;8.90;99.90
15455;DHT22;21057;51.024;7.540;2022-11-25T08:13:08;9.10;99.90
15455;DHT22;21057;51.024;7.540;2022-11-25T08:15:35;9.00;99.90
15455;DHT22;21057;51.024;7.540;2022-11-25T08:18:03;8.90;99.90
15455;DHT22;21057;51.024;7.540;2022-11-25T08:20:30;9.00;99.90
15455;DHT22;21057;51.024;7.540;2022-11-25T08:22:57;9.00;99.90
15455;DHT22;21057;51.024;7.540;2022-11-25T08:25:24;9.20;99.90
15455;DHT22;21057;51.024;7.540;2022-11-25T08:27:51;9.30;99.90
15455;DHT22;21057;51.024;7.540;2022-11-25T08:30:18;9.40;99.90
15455;DHT22;21057;51.024;7.540;2022-11-25T08:32:46;9.40;99.90
15455;DHT22;21057;51.024;7.540;2022-11-25T08:35:14;9.20;99.90
15455;DHT22;21057;51.024;7.540;2022-11-25T08:37:41;9.10;99.90
15455;DHT22;21057;51.024;7.540;2022-11-25T08:40:09;9.40;99.90
15455;DHT22;21057;51.024;7.540;2022-11-25T08:42:37;9.40;99.90
15455;DHT22;21057;51.024;7.540;2022-11-25T08:45:05;9.50;99.90
15455;DHT22;21057;51.024;7.540;2022-11-25T08:47:32;9.40;99.90
15455;DHT22;21057;51.024;7.540;2022-11-25T08:49:59;9.40;99.90
15455;DHT22;21057;51.024;7.540;2022-11-25T08:52:27;9.30;99.90
15455;DHT22;21057;51.024;7.540;2022-11-25T08:54:54;9.40;99.90
15455;DHT22;21057;51.024;7.540;2022-11-25T08:57:21;9.40;99.90
15455;DHT22;21057;51.024;7.540;2022-11-25T08:59:48;9.60;99.90
15455;DHT22;21057;51.024;7.540;2022-11-25T09:02:16;9.60;99.90
15455;DHT22;21057;51.024;7.540;2022-11-25T09:04:43;9.50;99.90
15455;DHT22;21057;51.024;7.540;2022-11-25T09:07:10;9.60;99.90
15455;DHT22;21057;51.024;7.540;2022-11-25T09:09:38;9.60;99.90
15455;DHT22;21057;51.024;7.540;2022-11-25T09:12:05;9.60;99.90
15455;DHT22;21057;51.024;7.540;2022-11-25T09:14:32;9.70;99.90
15455;DHT22;21057;51.024;7.540;2022-11-25T09:16:59;9.60;99.90
15455;DHT22;21057;51.024;7.540;2022-11-25T09:19:27;9.80;99.90
15455;DHT22;21057;51.024;7.540;2022-11-25T09:21:54;9.70;99.90
15455;DHT22;21057;51.024;7.540;2022-11-25T09:24:20;9.90;99.90
15455;DHT22;21057;51.024;7.540;2022-11-25T09:26:49;9.90;99.90
15455;DHT22;21057;51.024;7.540;2022-11-25T09:29:16;9.70;99.90
15455;DHT22;21057;51.024;7.540;2022-11-25T09:31:42;9.80;99.90
15455;DHT22;21057;51.024;7.540;2022-11-25T09:34:09;9.80;99.90
15455;DHT22;21057;51.024;7.540;2022-11-25T09:36:36;10.00;99.90
15455;DHT22;21057;51.024;7.540;2022-11-25T09:39:03;10.00;99.90
15455;DHT22;21057;51.024;7.540;2022-11-25T09:41:53;10.20;99.90
15455;DHT22;21057;51.024;7.540;2022-11-25T09:44:48;10.10;99.90
15455;DHT22;21057;51.024;7.540;2022-11-25T09:47:40;10.20;99.90
15455;DHT22;21057;51.024;7.540;2022-11-25T09:50:18;10.10;99.90
15455;DHT22;21057;51.024;7.540;2022-11-25T09:52:53;10.10;99.90
15455;DHT22;21057;51.024;7.540;2022-11-25T09:55:25;10.00;99.90
15455;DHT22;21057;51.024;7.540;2022-11-25T09:58:03;10.00;99.90
15455;DHT22;21057;51.024;7.540;2022-11-25T10:00:36;10.00;99.90
15455;DHT22;21057;51.024;7.540;2022-11-25T10:03:09;10.10;99.90
15455;DHT22;21057;51.024;7.540;2022-11-25T10:05:41;10.10;99.90
15455;DHT22;21057;51.024;7.540;2022-11-25T10:08:11;10.30;99.90
15455;DHT22;21057;51.024;7.540;2022-11-25T10:10:45;10.60;99.90
15455;DHT22;21057;51.024;7.540;2022-11-25T10:13:16;10.80;99.90
15455;DHT22;21057;51.024;7.540;2022-11-25T10:15:49;11.10;99.90
15455;DHT22;21057;51.024;7.540;2022-11-25T10:18:20;11.30;99.90
15455;DHT22;21057;51.024;7.540;2022-11-25T10:20:50;11.20;99.90
15455;DHT22;21057;51.024;7.540;2022-11-25T10:23:21;11.10;99.90
15455;DHT22;21057;51.024;7.540;2022-11-25T10:25:52;11.10;99.90
15455;DHT22;21057;51.024;7.540;2022-11-25T10:28:23;11.10;99.90
15455;DHT22;21057;51.024;7.540;2022-11-25T10:30:57;11.20;99.90
15455;DHT22;21057;51.024;7.540;2022-11-25T10:33:28;11.30;99.90
15455;DHT22;21057;51.024;7.540;2022-11-25T10:35:59;11.40;99.90
15455;DHT22;21057;51.024;7.540;2022-11-25T10:38:40;11.50;99.90
15455;DHT22;21057;51.024;7.540;2022-11-25T10:41:10;11.60;99.90
15455;DHT22;21057;51.024;7.540;2022-11-25T10:43:41;11.50;99.90
15455;DHT22;21057;51.024;7.540;2022-11-25T10:46:15;11.60;99.90
15455;DHT22;21057;51.024;7.540;2022-11-25T10:48:55;11.60;99.90
15455;DHT22;21057;51.024;7.540;2022-11-25T10:51:34;11.60;99.90
15455;DHT22;21057;51.024;7.540;2022-11-25T10:54:12;11.70;99.90
15455;DHT22;21057;51.024;7.540;2022-11-25T10:56:51;11.80;99.90
15455;DHT22;21057;51.024;7.540;2022-11-25T10:59:26;11.80;99.90
15455;DHT22;21057;51.024;7.540;2022-11-25T11:02:12;11.80;99.90
15455;DHT22;21057;51.024;7.540;2022-11-25T11:04:50;11.80;99.90
15455;DHT22;21057;51.024;7.540;2022-11-25T11:07:18;11.90;99.90
15455;DHT22;21057;51.024;7.540;2022-11-25T11:09:45;11.90;99.90
15455;DHT22;21057;51.024;7.540;2022-11-25T11:12:17;11.90;99.90
15455;DHT22;21057;51.024;7.540;2022-11-25T11:14:46;11.80;99.90
15455;DHT22;21057;51.024;7.540;2022-11-25T11:17:30;11.60;99.90
15455;DHT22;21057;51.024;7.540;2022-11-25T11:20:03;11.60;99.90
15455;DHT22;21057;51.024;7.540;2022-11-25T11:22:31;11.50;99.90
15455;DHT22;21057;51.024;7.540;2022-11-25T11:25:06;11.60;99.90
15455;DHT22;21057;51.024;7.540;2022-11-25T11:27:36;11.70;99.90
15455;DHT22;21057;51.024;7.540;2022-11-25T11:30:12;11.70;99.90
15455;DHT22;21057;51.024;7.540;2022-11-25T11:32:43;11.80;99.90
15455;DHT22;21057;51.024;7.540;2022-11-25T11:35:20;11.80;99.90
15455;DHT22;21057;51.024;7.540;2022-11-25T11:37:52;11.90;99.90
15455;DHT22;21057;51.024;7.540;2022-11-25T11:40:36;11.90;99.90
15455;DHT22;21057;51.024;7.540;2022-11-25T11:43:38;11.90;99.90
15455;DHT22;21057;51.024;7.540;2022-11-25T11:46:16;11.70;99.90
15455;DHT22;21057;51.024;7.540;2022-11-25T11:48:55;11.70;99.90
15455;DHT22;21057;51.024;7.540;2022-11-25T11:51:31;11.50;99.90
15455;DHT22;21057;51.024;7.540;2022-11-25T11:54:05;11.50;99.90
15455;DHT22;21057;51.024;7.540;2022-11-25T11:56:37;11.60;99.90
15455;DHT22;21057;51.024;7.540;2022-11-25T11:59:29;11.50;99.90
15455;DHT22;21057;51.024;7.540;2022-11-25T12:02:11;11.50;99.90
15455;DHT22;21057;51.024;7.540;2022-11-25T12:04:43;11.70;99.90
15455;DHT22;21057;51.024;7.540;2022-11-25T12:07:16;11.60;99.90
15455;DHT22;21057;51.024;7.540;2022-11-25T12:09:50;11.60;99.90
15455;DHT22;21057;51.024;7.540;2022-11-25T12:12:18;11.50;99.90
15455;DHT22;21057;51.024;7.540;2022-11-25T12:14:50;11.50;99.90
15455;DHT22;21057;51.024;7.540;2022-11-25T12:17:22;11.40;99.90
15455;DHT22;21057;51.024;7.540;2022-11-25T12:19:57;11.40;99.90
15455;DHT22;21057;51.024;7.540;2022-11-25T12:22:31;11.40;99.90
15455;DHT22;21057;51.024;7.540;2022-11-25T12:25:04;11.50;99.90
15455;DHT22;21057;51.024;7.540;2022-11-25T12:27:36;11.60;99.90
15455;DHT22;21057;51.024;7.540;2022-11-25T12:30:06;11.60;99.90
15455;DHT22;21057;51.024;7.540;2022-11-25T12:32:46;11.60;99.90
15455;DHT22;21057;51.024;7.540;2022-11-25T12:35:22;11.60;99.90
15455;DHT22;21057;51.024;7.540;2022-11-25T12:37:57;11.50;99.90
15455;DHT22;21057;51.024;7.540;2022-11-25T12:40:32;11.70;99.90
15455;DHT22;21057;51.024;7.540;2022-11-25T12:43:08;11.50;99.90
15455;DHT22;21057;51.024;7.540;2022-11-25T12:45:36;11.60;99.90
15455;DHT22;21057;51.024;7.540;2022-11-25T12:48:09;11.50;99.90
15455;DHT22;21057;51.024;7.540;2022-11-25T12:50:45;11.60;99.90
15455;DHT22;21057;51.024;7.540;2022-11-25T12:53:19;11.50;99.90
15455;DHT22;21057;51.024;7.540;2022-11-25T12:55:49;11.70;99.90
15455;DHT22;21057;51.024;7.540;2022-11-25T12:58:43;11.70;99.90
15455;DHT22;21057;51.024;7.540;2022-11-25T13:01:38;11.70;99.90
15455;DHT22;21057;51.024;7.540;2022-11-25T13:07:34;11.60;99.90
15455;DHT22;21057;51.024;7.540;2022-11-25T13:10:26;11.60;99.90
15455;DHT22;21057;51.024;7.540;2022-11-25T13:13:12;11.70;99.90
15455;DHT22;21057;51.024;7.540;2022-11-25T13:15:44;11.70;99.90
15455;DHT22;21057;51.024;7.540;2022-11-25T13:18:13;11.60;99.90
15455;DHT22;21057;51.024;7.540;2022-11-25T13:20:48;11.70;99.90
15455;DHT22;21057;51.024;7.540;2022-11-25T13:23:28;11.50;99.90
15455;DHT22;21057;51.024;7.540;2022-11-25T13:26:34;11.50;99.90
15455;DHT22;21057;51.024;7.540;2022-11-25T13:32:24;11.70;99.90
15455;DHT22;21057;51.024;7.540;2022-11-25T13:38:34;11.70;99.90
15455;DHT22;21057;51.024;7.540;2022-11-25T13:41:19;11.70;99.90
15455;DHT22;21057;51.024;7.540;2022-11-25T13:43:58;11.70;99.90
15455;DHT22;21057;51.024;7.540;2022-11-25T13:46:35;11.70;99.90
15455;DHT22;21057;51.024;7.540;2022-11-25T13:49:04;11.70;99.90
15455;DHT22;21057;51.024;7.540;2022-11-25T13:51:31;11.60;99.90
15455;DHT22;21057;51.024;7.540;2022-11-25T13:54:03;11.60;99.90
15455;DHT22;21057;51.024;7.540;2022-11-25T13:56:33;11.70;99.90
15455;DHT22;21057;51.024;7.540;2022-11-25T13:59:32;11.70;99.90
15455;DHT22;21057;51.024;7.540;2022-11-25T14:02:32;11.70;99.90
15455;DHT22;21057;51.024;7.540;2022-11-25T14:08:13;11.60;99.90
15455;DHT22;21057;51.024;7.540;2022-11-25T14:10:57;11.50;99.90
15455;DHT22;21057;51.024;7.540;2022-11-25T14:13:48;11.40;99.90
15455;DHT22;21057;51.024;7.540;2022-11-25T14:16:31;11.50;99.90
15455;DHT22;21057;51.024;7.540;2022-11-25T14:19:46;11.50;99.90
15455;DHT22;21057;51.024;7.540;2022-11-25T14:23:02;11.30;99.90
15455;DHT22;21057;51.024;7.540;2022-11-25T14:25:43;11.30;99.90
15455;DHT22;21057;51.024;7.540;2022-11-25T14:28:26;11.20;99.90
15455;DHT22;21057;51.024;7.540;2022-11-25T14:30:57;11.20;99.90
15455;DHT22;21057;51.024;7.540;2022-11-25T14:33:31;11.20;99.90
15455;DHT22;21057;51.024;7.540;2022-11-25T14:36:04;11.10;99.90
15455;DHT22;21057;51.024;7.540;2022-11-25T14:38:39;11.10;99.90
15455;DHT22;21057;51.024;7.540;2022-11-25T14:41:12;11.10;99.90
15455;DHT22;21057;51.024;7.540;2022-11-25T14:43:47;11.10;99.90
15455;DHT22;21057;51.024;7.540;2022-11-25T14:46:18;11.00;99.90
15455;DHT22;21057;51.024;7.540;2022-11-25T14:48:52;10.90;99.90
15455;DHT22;21057;51.024;7.540;2022-11-25T14:51:20;11.00;99.90
15455;DHT22;21057;51.024;7.540;2022-11-25T14:53:48;11.00;99.90
15455;DHT22;21057;51.024;7.540;2022-11-25T14:56:21;10.90;99.90
15455;DHT22;21057;51.024;7.540;2022-11-25T14:58:51;10.80;99.90
15455;DHT22;21057;51.024;7.540;2022-11-25T15:01:21;10.70;99.90
15455;DHT22;21057;51.024;7.540;2022-11-25T15:03:50;10.80;99.90
15455;DHT22;21057;51.024;7.540;2022-11-25T15:06:17;10.80;99.90
15455;DHT22;21057;51.024;7.540;2022-11-25T15:08:53;10.70;99.90
15455;DHT22;21057;51.024;7.540;2022-11-25T15:11:23;10.70;99.90
15455;DHT22;21057;51.024;7.540;2022-11-25T15:13:56;10.50;99.90
15455;DHT22;21057;51.024;7.540;2022-11-25T15:16:29;10.40;99.90
15455;DHT22;21057;51.024;7.540;2022-11-25T15:18:58;10.30;99.90
15455;DHT22;21057;51.024;7.540;2022-11-25T15:21:29;10.40;99.90
15455;DHT22;21057;51.024;7.540;2022-11-25T15:23:56;10.40;99.90
15455;DHT22;21057;51.024;7.540;2022-11-25T15:26:26;10.30;99.90
15455;DHT22;21057;51.024;7.540;2022-11-25T15:28:56;10.30;99.90
15455;DHT22;21057;51.024;7.540;2022-11-25T15:31:26;10.30;99.90
15455;DHT22;21057;51.024;7.540;2022-11-25T15:33:56;10.20;99.90
15455;DHT22;21057;51.024;7.540;2022-11-25T15:36:24;10.30;99.90
15455;DHT22;21057;51.024;7.540;2022-11-25T15:38:51;10.30;99.90
15455;DHT22;21057;51.024;7.540;2022-11-25T15:41:30;10.30;99.90
15455;DHT22;21057;51.024;7.540;2022-11-25T15:44:02;10.30;99.90
15455;DHT22;21057;51.024;7.540;2022-11-25T15:46:31;10.40;99.90
15455;DHT22;21057;51.024;7.540;2022-11-25T15:49:01;10.30;99.90
15455;DHT22;21057;51.024;7.540;2022-11-25T15:51:40;10.40;99.90
15455;DHT22;21057;51.024;7.540;2022-11-25T15:54:16;10.50;99.90
15455;DHT22;21057;51.024;7.540;2022-11-25T15:56:46;10.40;99.90
15455;DHT22;21057;51.024;7.540;2022-11-25T15:59:41;10.30;99.90
15455;DHT22;21057;51.024;7.540;2022-11-25T16:02:35;10.30;99.90
15455;DHT22;21057;51.024;7.540;2022-11-25T16:08:24;10.30;99.90
15455;DHT22;21057;51.024;7.540;2022-11-25T16:10:57;10.50;99.90
15455;DHT22;21057;51.024;7.540;2022-11-25T16:13:32;10.40;99.90
15455;DHT22;21057;51.024;7.540;2022-11-25T16:16:14;10.40;99.90
15455;DHT22;21057;51.024;7.540;2022-11-25T16:18:47;10.30;99.90
15455;DHT22;21057;51.024;7.540;2022-11-25T16:21:21;10.40;99.90